createdAt,value
2023-02-22T00:00:31.968Z,29.70
2023-02-22T00:01:32.009Z,29.71
2023-02-22T00:02:32.020Z,29.67
2023-02-22T00:03:32.036Z,29.64
2023-02-22T00:04:32.114Z,29.71
2023-02-22T00:05:32.093Z,29.63
2023-02-22T00:06:32.125Z,29.67
2023-02-22T00:07:32.169Z,29.61
2023-02-22T00:08:32.242Z,29.64
2023-02-22T00:09:32.278Z,29.63
2023-02-22T00:10:32.316Z,29.66
2023-02-22T00:11:32.365Z,29.59
2023-02-22T00:12:32.402Z,29.66
2023-02-22T00:13:32.409Z,29.63
2023-02-22T00:14:32.473Z,29.64
2023-02-22T00:15:32.469Z,29.61
2023-02-22T00:16:32.571Z,29.64
2023-02-22T00:17:32.550Z,29.67
2023-02-22T00:18:32.582Z,29.67
2023-02-22T00:19:32.620Z,29.64
2023-02-22T00:20:32.636Z,29.64
2023-02-22T00:21:32.683Z,29.57
2023-02-22T00:22:32.697Z,29.64
2023-02-22T00:23:32.716Z,29.63
2023-02-22T00:24:32.743Z,29.56
2023-02-22T00:25:32.760Z,29.59
2023-02-22T00:26:32.800Z,29.59
2023-02-22T00:27:32.815Z,29.57
2023-02-22T00:28:32.832Z,29.59
2023-02-22T00:29:32.873Z,29.60
2023-02-22T00:30:33.109Z,29.61
2023-02-22T00:31:32.941Z,29.61
2023-02-22T00:32:32.997Z,29.59
2023-02-22T00:33:32.985Z,29.58
2023-02-22T00:34:32.997Z,29.58
2023-02-22T00:35:33.037Z,29.57
2023-02-22T00:36:33.035Z,29.60
2023-02-22T00:37:33.052Z,29.53
2023-02-22T00:38:33.068Z,29.52
2023-02-22T00:39:33.087Z,29.53
2023-02-22T00:40:33.096Z,29.58
2023-02-22T00:41:33.154Z,29.56
2023-02-22T00:42:33.124Z,29.60
2023-02-22T00:43:33.134Z,29.53
2023-02-22T00:44:33.159Z,29.56
2023-02-22T00:45:33.208Z,29.56
2023-02-22T00:46:33.177Z,29.58
2023-02-22T00:47:33.182Z,29.50
2023-02-22T00:48:33.193Z,29.59
2023-02-22T00:49:33.212Z,29.58
2023-02-22T00:50:33.229Z,29.58
2023-02-22T00:51:33.240Z,29.63
2023-02-22T00:52:33.873Z,29.58
2023-02-22T00:53:33.272Z,29.59
2023-02-22T00:54:33.281Z,29.64
2023-02-22T00:55:33.323Z,29.63
2023-02-22T00:56:33.310Z,29.59
2023-02-22T00:57:33.331Z,29.63
2023-02-22T00:58:33.342Z,29.59
2023-02-22T00:59:33.357Z,29.63
2023-02-22T01:00:33.363Z,29.58
2023-02-22T01:01:33.449Z,29.53
2023-02-22T01:02:33.409Z,29.53
2023-02-22T01:03:33.424Z,29.49
2023-02-22T01:04:33.450Z,29.50
2023-02-22T01:05:33.463Z,29.53
2023-02-22T01:06:33.473Z,29.52
2023-02-22T01:07:33.485Z,29.44
2023-02-22T01:08:33.500Z,29.45
2023-02-22T01:09:33.518Z,29.53
2023-02-22T01:10:33.528Z,29.52
2023-02-22T01:11:33.548Z,29.42
2023-02-22T01:12:33.587Z,29.53
2023-02-22T01:13:33.595Z,29.49
2023-02-22T01:14:33.620Z,29.45
2023-02-22T01:15:33.658Z,29.44
2023-02-22T01:16:33.769Z,29.47
2023-02-22T01:17:33.712Z,29.43
2023-02-22T01:18:33.717Z,29.44
2023-02-22T01:19:33.747Z,29.41
2023-02-22T01:20:33.786Z,29.45
2023-02-22T01:21:33.774Z,29.41
2023-02-22T01:22:33.888Z,29.44
2023-02-22T01:23:33.815Z,29.43
2023-02-22T01:24:33.833Z,29.41
2023-02-22T01:25:33.836Z,29.38
2023-02-22T01:26:33.872Z,29.43
2023-02-22T01:27:33.876Z,29.41
2023-02-22T01:28:33.948Z,29.43
2023-02-22T01:29:33.919Z,29.41
2023-02-22T01:30:34.106Z,29.38
2023-02-22T01:31:34.062Z,29.38
2023-02-22T01:32:34.016Z,29.41
2023-02-22T01:33:34.097Z,29.38
2023-02-22T01:34:34.053Z,29.43
2023-02-22T01:35:34.075Z,29.44
2023-02-22T01:36:34.077Z,29.36
2023-02-22T01:37:34.110Z,29.43
2023-02-22T01:38:34.123Z,29.39
2023-02-22T01:39:34.160Z,29.38
2023-02-22T01:40:34.182Z,29.39
2023-02-22T01:41:34.192Z,29.41
2023-02-22T01:42:34.208Z,29.41
2023-02-22T01:43:34.254Z,29.38
2023-02-22T01:44:34.244Z,29.42
2023-02-22T01:45:34.257Z,29.36
2023-02-22T01:46:34.269Z,29.36
2023-02-22T01:47:34.306Z,29.39
2023-02-22T01:48:34.343Z,29.38
2023-02-22T01:49:34.363Z,29.33
2023-02-22T01:50:34.384Z,29.36
2023-02-22T01:51:34.392Z,29.33
2023-02-22T01:52:34.414Z,29.39
2023-02-22T01:53:34.439Z,29.38
2023-02-22T01:54:34.468Z,29.32
2023-02-22T01:55:34.494Z,29.30
2023-02-22T01:56:34.516Z,29.32
2023-02-22T01:57:34.530Z,29.28
2023-02-22T01:58:34.540Z,29.27
2023-02-22T01:59:34.558Z,29.36
2023-02-22T02:00:34.597Z,29.24
2023-02-22T02:01:34.614Z,29.27
2023-02-22T02:02:34.674Z,29.30
2023-02-22T02:03:34.727Z,29.22
2023-02-22T02:04:34.762Z,29.28
2023-02-22T02:05:34.713Z,29.26
2023-02-22T02:06:34.780Z,29.28
2023-02-22T02:07:34.793Z,29.27
2023-02-22T02:08:34.840Z,29.28
2023-02-22T02:09:34.852Z,29.32
2023-02-22T02:10:34.872Z,29.27
2023-02-22T02:11:34.878Z,29.36
2023-02-22T02:12:34.906Z,29.28
2023-02-22T02:13:34.927Z,29.32
2023-02-22T02:14:34.954Z,29.30
2023-02-22T02:15:34.978Z,29.32
2023-02-22T02:16:35.027Z,29.30
2023-02-22T02:17:35.062Z,29.32
2023-02-22T02:18:35.097Z,29.33
2023-02-22T02:19:35.171Z,29.22
2023-02-22T02:20:35.207Z,29.25
2023-02-22T02:21:35.228Z,29.27
2023-02-22T02:22:35.266Z,29.25
2023-02-22T02:23:35.276Z,29.25
2023-02-22T02:24:35.324Z,29.28
2023-02-22T02:25:35.341Z,29.21
2023-02-22T02:26:35.376Z,29.22
2023-02-22T02:27:35.390Z,29.18
2023-02-22T02:28:35.440Z,29.22
2023-02-22T02:29:35.463Z,29.21
2023-02-22T02:30:35.530Z,29.24
2023-02-22T02:31:35.660Z,29.21
2023-02-22T02:32:35.597Z,29.17
2023-02-22T02:33:35.600Z,29.19
2023-02-22T02:34:35.622Z,29.22
2023-02-22T02:35:35.652Z,29.24
2023-02-22T02:36:35.673Z,29.16
2023-02-22T02:37:35.678Z,29.23
2023-02-22T02:38:35.745Z,29.21
2023-02-22T02:39:35.725Z,29.17
2023-02-22T02:40:35.754Z,29.22
2023-02-22T02:41:35.786Z,29.16
2023-02-22T02:42:35.799Z,29.18
2023-02-22T02:43:35.835Z,29.19
2023-02-22T02:44:35.860Z,29.16
2023-02-22T02:45:35.883Z,29.15
2023-02-22T02:46:35.949Z,29.19
2023-02-22T02:47:35.975Z,29.18
2023-02-22T02:48:36.001Z,29.19
2023-02-22T02:49:36.023Z,29.15
2023-02-22T02:50:36.054Z,29.18
2023-02-22T02:51:36.097Z,29.18
2023-02-22T02:52:36.115Z,29.15
2023-02-22T02:53:36.150Z,29.17
2023-02-22T02:54:36.189Z,29.15
2023-02-22T02:55:36.216Z,29.15
2023-02-22T02:56:36.235Z,29.10
2023-02-22T02:57:36.246Z,29.13
2023-02-22T02:58:36.275Z,29.10
2023-02-22T02:59:36.274Z,29.12
2023-02-22T03:00:36.294Z,29.10
2023-02-22T03:01:36.382Z,29.11
2023-02-22T03:02:36.334Z,29.13
2023-02-22T03:03:36.358Z,29.07
2023-02-22T03:04:36.401Z,29.13
2023-02-22T03:05:36.437Z,29.18
2023-02-22T03:06:36.465Z,29.04
2023-02-22T03:07:36.480Z,29.05
2023-02-22T03:08:36.480Z,29.13
2023-02-22T03:09:36.506Z,29.13
2023-02-22T03:10:36.538Z,29.12
2023-02-22T03:11:36.567Z,29.08
2023-02-22T03:12:37.431Z,29.12
2023-02-22T03:13:36.640Z,29.02
2023-02-22T03:14:36.665Z,29.07
2023-02-22T03:15:36.680Z,29.07
2023-02-22T03:16:36.749Z,29.05
2023-02-22T03:17:36.761Z,29.04
2023-02-22T03:18:36.763Z,29.04
2023-02-22T03:19:36.791Z,29.04
2023-02-22T03:20:36.797Z,29.07
2023-02-22T03:21:36.812Z,29.04
2023-02-22T03:22:36.827Z,29.07
2023-02-22T03:23:36.892Z,29.07
2023-02-22T03:24:36.854Z,29.09
2023-02-22T03:25:36.917Z,29.01
2023-02-22T03:26:36.942Z,29.02
2023-02-22T03:27:36.955Z,29.04
2023-02-22T03:28:36.996Z,29.04
2023-02-22T03:29:37.033Z,29.01
2023-02-22T03:30:37.088Z,28.98
2023-02-22T03:31:37.040Z,28.99
2023-02-22T03:32:37.110Z,28.98
2023-02-22T03:33:37.064Z,28.91
2023-02-22T03:34:37.092Z,28.96
2023-02-22T03:35:37.131Z,28.96
2023-02-22T03:36:37.124Z,28.99
2023-02-22T03:37:37.150Z,28.97
2023-02-22T03:38:37.154Z,29.01
2023-02-22T03:39:37.174Z,28.99
2023-02-22T03:40:37.189Z,29.00
2023-02-22T03:41:37.271Z,29.07
2023-02-22T03:42:37.207Z,29.04
2023-02-22T03:43:37.225Z,29.04
2023-02-22T03:44:37.234Z,29.03
2023-02-22T03:45:37.248Z,29.05
2023-02-22T03:46:37.330Z,29.02
2023-02-22T03:47:37.281Z,29.05
2023-02-22T03:48:37.309Z,29.10
2023-02-22T03:49:37.348Z,29.13
2023-02-22T03:50:37.357Z,29.15
2023-02-22T03:51:37.378Z,29.13
2023-02-22T03:52:37.437Z,29.17
2023-02-22T03:53:37.420Z,29.08
2023-02-22T03:54:37.432Z,29.16
2023-02-22T03:55:37.461Z,29.07
2023-02-22T03:56:37.474Z,29.06
2023-02-22T03:57:37.480Z,29.10
2023-02-22T03:58:37.495Z,29.10
2023-02-22T03:59:37.520Z,29.10
2023-02-22T04:00:37.543Z,29.08
2023-02-22T04:01:37.556Z,29.04
2023-02-22T04:02:37.578Z,29.07
2023-02-22T04:03:37.614Z,29.03
2023-02-22T04:04:37.761Z,29.01
2023-02-22T04:05:37.657Z,28.99
2023-02-22T04:06:37.690Z,28.99
2023-02-22T04:07:37.710Z,28.96
2023-02-22T04:08:37.727Z,29.00
2023-02-22T04:09:37.769Z,28.96
2023-02-22T04:10:37.820Z,28.97
2023-02-22T04:11:37.847Z,28.94
2023-02-22T04:12:37.887Z,28.99
2023-02-22T04:13:37.941Z,28.93
2023-02-22T04:14:38.002Z,28.97
2023-02-22T04:15:38.114Z,29.00
2023-02-22T04:16:38.110Z,28.93
2023-02-22T04:17:38.142Z,28.97
2023-02-22T04:18:38.203Z,28.96
2023-02-22T04:19:38.239Z,28.99
2023-02-22T04:20:38.312Z,29.01
2023-02-22T04:21:38.349Z,28.97
2023-02-22T04:22:38.385Z,29.02
2023-02-22T04:23:38.393Z,29.04
2023-02-22T04:24:38.446Z,28.99
2023-02-22T04:25:38.455Z,28.99
2023-02-22T04:26:38.449Z,28.99
2023-02-22T04:27:38.461Z,29.02
2023-02-22T04:28:38.480Z,28.96
2023-02-22T04:29:38.489Z,28.99
2023-02-22T04:30:38.592Z,29.00
2023-02-22T04:31:38.632Z,29.00
2023-02-22T04:32:38.564Z,29.03
2023-02-22T04:33:38.596Z,29.00
2023-02-22T04:34:38.622Z,29.02
2023-02-22T04:35:38.657Z,29.04
2023-02-22T04:36:38.648Z,29.01
2023-02-22T04:37:38.679Z,29.04
2023-02-22T04:38:38.682Z,29.04
2023-02-22T04:39:38.763Z,29.05
2023-02-22T04:40:38.754Z,29.05
2023-02-22T04:41:38.777Z,28.93
2023-02-22T04:42:38.814Z,28.96
2023-02-22T04:43:38.910Z,28.94
2023-02-22T04:44:38.877Z,28.93
2023-02-22T04:45:38.916Z,28.88
2023-02-22T04:46:39.012Z,28.91
2023-02-22T04:47:38.959Z,28.91
2023-02-22T04:48:38.993Z,28.87
2023-02-22T04:49:39.198Z,28.93
2023-02-22T04:50:39.085Z,28.93
2023-02-22T04:51:39.141Z,28.90
2023-02-22T04:52:39.191Z,28.85
2023-02-22T04:53:39.265Z,28.91
2023-02-22T04:54:39.300Z,28.99
2023-02-22T04:55:39.370Z,28.93
2023-02-22T04:56:39.413Z,28.88
2023-02-22T04:57:39.448Z,28.90
2023-02-22T04:58:39.445Z,28.85
2023-02-22T04:59:39.481Z,28.87
2023-02-22T05:00:39.543Z,28.84
2023-02-22T05:01:39.556Z,28.84
2023-02-22T05:02:39.664Z,28.78
2023-02-22T05:03:39.639Z,28.85
2023-02-22T05:04:39.752Z,28.84
2023-02-22T05:05:39.730Z,28.79
2023-02-22T05:06:39.769Z,28.81
2023-02-22T05:07:39.781Z,28.84
2023-02-22T05:08:39.808Z,28.80
2023-02-22T05:09:39.833Z,28.83
2023-02-22T05:10:39.861Z,28.80
2023-02-22T05:11:39.902Z,28.87
2023-02-22T05:12:39.940Z,28.82
2023-02-22T05:13:40.986Z,28.85
2023-02-22T05:14:40.036Z,28.85
2023-02-22T05:15:40.080Z,28.88
2023-02-22T05:16:40.129Z,28.85
2023-02-22T05:17:40.175Z,28.92
2023-02-22T05:18:40.210Z,28.90
2023-02-22T05:19:40.247Z,28.91
2023-02-22T05:20:40.284Z,28.93
2023-02-22T05:21:40.338Z,28.88
2023-02-22T05:22:40.354Z,28.93
2023-02-22T05:23:40.378Z,28.95
2023-02-22T05:24:40.415Z,28.91
2023-02-22T05:25:40.464Z,28.80
2023-02-22T05:26:40.508Z,28.87
2023-02-22T05:27:40.534Z,28.88
2023-02-22T05:28:40.563Z,28.85
2023-02-22T05:29:40.635Z,28.90
2023-02-22T05:30:40.767Z,28.87
2023-02-22T05:31:40.933Z,28.88
2023-02-22T05:32:40.829Z,28.91
2023-02-22T05:33:40.865Z,28.87
2023-02-22T05:34:40.919Z,28.80
2023-02-22T05:35:40.964Z,28.80
2023-02-22T05:36:41.024Z,28.79
2023-02-22T05:37:41.081Z,28.74
2023-02-22T05:38:41.134Z,28.78
2023-02-22T05:39:41.213Z,28.77
2023-02-22T05:40:41.275Z,28.79
2023-02-22T05:41:41.317Z,28.80
2023-02-22T05:42:41.390Z,28.79
2023-02-22T05:43:41.454Z,28.79
2023-02-22T05:44:41.501Z,28.73
2023-02-22T05:45:41.534Z,28.79
2023-02-22T05:46:41.630Z,28.80
2023-02-22T05:47:41.599Z,28.76
2023-02-22T05:48:41.621Z,28.78
2023-02-22T05:49:41.658Z,28.79
2023-02-22T05:50:41.697Z,28.76
2023-02-22T05:51:41.731Z,28.80
2023-02-22T05:52:41.761Z,28.82
2023-02-22T05:53:41.790Z,28.73
2023-02-22T05:54:41.809Z,28.78
2023-02-22T05:55:41.833Z,28.79
2023-02-22T05:56:41.856Z,28.79
2023-02-22T05:57:41.923Z,28.78
2023-02-22T05:58:41.934Z,28.73
2023-02-22T05:59:41.974Z,28.78
2023-02-22T06:00:41.997Z,28.76
2023-02-22T06:01:42.102Z,28.97
2023-02-22T06:02:42.121Z,28.93
2023-02-22T06:03:42.150Z,28.80
2023-02-22T06:04:42.192Z,28.85
2023-02-22T06:05:42.286Z,28.91
2023-02-22T06:06:42.281Z,28.88
2023-02-22T06:07:42.315Z,28.90
2023-02-22T06:08:42.340Z,28.88
2023-02-22T06:09:42.365Z,28.91
2023-02-22T06:10:42.386Z,29.08
2023-02-22T06:11:42.413Z,29.14
2023-02-22T06:12:42.445Z,29.26
2023-02-22T06:13:42.471Z,29.53
2023-02-22T06:14:42.486Z,29.50
2023-02-22T06:15:42.521Z,29.45
2023-02-22T06:16:42.537Z,29.30
2023-02-22T06:17:42.566Z,29.39
2023-02-22T06:18:42.590Z,29.51
2023-02-22T06:19:42.618Z,29.37
2023-02-22T06:20:42.638Z,29.66
2023-02-22T06:21:42.652Z,29.22
2023-02-22T06:22:42.676Z,29.84
2023-02-22T06:23:42.693Z,29.99
2023-02-22T06:24:42.718Z,29.84
2023-02-22T06:25:42.817Z,30.29
2023-02-22T06:26:42.782Z,30.51
2023-02-22T06:27:42.820Z,30.89
2023-02-22T06:28:42.835Z,30.34
2023-02-22T06:29:42.861Z,30.20
2023-02-22T06:30:43.027Z,30.39
2023-02-22T06:31:42.954Z,30.73
2023-02-22T06:32:42.992Z,30.81
2023-02-22T06:33:43.000Z,30.50
2023-02-22T06:34:43.936Z,30.55
2023-02-22T06:35:43.068Z,29.85
2023-02-22T06:36:43.129Z,29.68
2023-02-22T06:37:43.201Z,29.71
2023-02-22T06:38:43.269Z,29.73
2023-02-22T06:39:43.316Z,29.45
2023-02-22T06:40:43.382Z,29.42
2023-02-22T06:41:43.441Z,29.33
2023-02-22T06:42:43.506Z,29.30
2023-02-22T06:43:43.577Z,29.29
2023-02-22T06:44:43.634Z,29.31
2023-02-22T06:45:44.561Z,29.33
2023-02-22T06:46:43.768Z,29.58
2023-02-22T06:47:43.806Z,29.50
2023-02-22T06:48:43.822Z,29.40
2023-02-22T06:49:43.897Z,29.57
2023-02-22T06:50:43.895Z,30.01
2023-02-22T06:51:43.954Z,29.57
2023-02-22T06:52:43.997Z,29.31
2023-02-22T06:53:44.021Z,29.25
2023-02-22T06:54:44.029Z,29.06
2023-02-22T06:55:44.050Z,28.98
2023-02-22T06:56:44.110Z,29.59
2023-02-22T06:57:44.116Z,30.35
2023-02-22T06:58:44.132Z,30.14
2023-02-22T06:59:44.209Z,29.99
2023-02-22T07:00:44.208Z,29.92
2023-02-22T07:01:44.188Z,29.54
2023-02-22T07:02:44.215Z,29.40
2023-02-22T07:03:44.240Z,29.51
2023-02-22T07:04:44.239Z,29.54
2023-02-22T07:05:44.262Z,29.31
2023-02-22T07:06:44.266Z,29.04
2023-02-22T07:07:44.279Z,28.84
2023-02-22T07:08:44.293Z,28.76
2023-02-22T07:09:45.613Z,28.70
2023-02-22T07:10:44.365Z,28.65
2023-02-22T07:11:44.410Z,28.61
2023-02-22T07:12:44.459Z,28.58
2023-02-22T07:13:44.470Z,28.59
2023-02-22T07:14:44.493Z,28.48
2023-02-22T07:15:44.542Z,28.55
2023-02-22T07:16:44.586Z,28.47
2023-02-22T07:17:44.596Z,28.64
2023-02-22T07:18:44.643Z,28.96
2023-02-22T07:19:44.664Z,28.67
2023-02-22T07:20:44.848Z,28.61
2023-02-22T07:21:45.461Z,29.25
2023-02-22T07:22:44.724Z,29.48
2023-02-22T07:23:44.754Z,29.37
2023-02-22T07:24:45.555Z,29.56
2023-02-22T07:25:44.791Z,29.48
2023-02-22T07:26:44.825Z,29.71
2023-02-22T07:27:44.915Z,29.48
2023-02-22T07:28:44.856Z,29.37
2023-02-22T07:29:44.908Z,29.64
2023-02-22T07:30:44.932Z,29.26
2023-02-22T07:31:44.924Z,29.27
2023-02-22T07:32:45.079Z,29.13
2023-02-22T07:33:44.951Z,29.23
2023-02-22T07:34:44.963Z,29.01
2023-02-22T07:35:44.981Z,28.98
2023-02-22T07:36:44.986Z,28.73
2023-02-22T07:37:44.994Z,28.79
2023-02-22T07:38:45.005Z,28.80
2023-02-22T07:39:45.033Z,28.84
2023-02-22T07:40:45.043Z,28.83
2023-02-22T07:41:45.030Z,28.85
2023-02-22T07:42:45.049Z,28.88
2023-02-22T07:43:45.064Z,29.02
2023-02-22T07:44:45.070Z,29.04
2023-02-22T07:45:45.130Z,28.99
2023-02-22T07:46:45.098Z,29.03
2023-02-22T07:47:45.143Z,29.02
2023-02-22T07:48:45.136Z,29.02
2023-02-22T07:49:45.152Z,29.19
2023-02-22T07:50:45.156Z,29.16
2023-02-22T07:51:45.168Z,29.16
2023-02-22T07:52:45.168Z,29.17
2023-02-22T07:53:45.198Z,29.19
2023-02-22T07:54:45.195Z,29.19
2023-02-22T07:55:45.215Z,29.18
2023-02-22T07:56:45.216Z,29.16
2023-02-22T07:57:45.252Z,29.19
2023-02-22T07:58:47.985Z,29.24
2023-02-22T07:59:45.242Z,29.27
2023-02-22T08:00:45.266Z,29.36
2023-02-22T08:01:45.285Z,29.24
2023-02-22T08:02:45.328Z,29.22
2023-02-22T08:03:45.417Z,29.32
2023-02-22T08:04:45.292Z,29.28
2023-02-22T08:05:45.287Z,29.34
2023-02-22T08:06:45.306Z,29.36
2023-02-22T08:07:45.329Z,29.30
2023-02-22T08:08:45.320Z,29.34
2023-02-22T08:09:45.345Z,29.34
2023-02-22T08:10:45.346Z,29.61
2023-02-22T08:11:45.371Z,29.47
2023-02-22T08:12:45.393Z,29.36
2023-02-22T08:13:45.375Z,29.39
2023-02-22T08:14:45.396Z,29.41
2023-02-22T08:15:45.412Z,29.78
2023-02-22T08:16:45.443Z,30.25
2023-02-22T08:17:45.430Z,29.92
2023-02-22T08:18:45.451Z,30.07
2023-02-22T08:19:45.459Z,30.48
2023-02-22T08:20:45.484Z,30.43
2023-02-22T08:21:45.473Z,30.76
2023-02-22T08:22:45.521Z,30.79
2023-02-22T08:23:45.515Z,30.28
2023-02-22T08:24:46.066Z,30.34
2023-02-22T08:25:45.531Z,30.17
2023-02-22T08:26:45.513Z,30.27
2023-02-22T08:27:46.102Z,29.99
2023-02-22T08:28:46.080Z,30.00
2023-02-22T08:29:45.522Z,29.93
2023-02-22T08:30:45.604Z,29.88
2023-02-22T08:31:45.668Z,29.86
2023-02-22T08:32:45.733Z,29.86
2023-02-22T08:33:45.562Z,29.90
2023-02-22T08:34:45.574Z,29.94
2023-02-22T08:35:45.585Z,29.94
2023-02-22T08:36:46.603Z,29.94
2023-02-22T08:37:46.614Z,29.96
2023-02-22T08:38:45.620Z,29.86
2023-02-22T08:39:45.626Z,29.88
2023-02-22T08:40:45.649Z,29.85
2023-02-22T08:41:45.643Z,29.77
2023-02-22T08:42:45.655Z,29.80
2023-02-22T08:43:45.667Z,29.92
2023-02-22T08:44:45.677Z,29.86
2023-02-22T08:45:45.739Z,29.84
2023-02-22T08:46:45.694Z,29.80
2023-02-22T08:47:45.703Z,28.69
2023-02-22T08:48:45.711Z,28.71
2023-02-22T08:49:45.731Z,28.69
2023-02-22T08:50:45.736Z,29.59
2023-02-22T08:51:45.742Z,29.88
2023-02-22T08:52:45.746Z,29.86
2023-02-22T08:53:45.757Z,29.80
2023-02-22T08:54:45.769Z,29.82
2023-02-22T08:55:45.812Z,29.86
2023-02-22T08:56:45.789Z,29.84
2023-02-22T08:57:45.786Z,29.86
2023-02-22T08:58:45.803Z,29.81
2023-02-22T08:59:45.785Z,29.80
2023-02-22T09:00:45.812Z,29.76
2023-02-22T09:01:45.888Z,29.80
2023-02-22T09:02:45.817Z,29.80
2023-02-22T09:03:45.848Z,29.75
2023-02-22T09:04:45.824Z,29.81
2023-02-22T09:05:45.900Z,29.76
2023-02-22T09:06:45.838Z,29.75
2023-02-22T09:07:45.833Z,29.73
2023-02-22T09:08:45.835Z,29.69
2023-02-22T09:09:45.841Z,29.70
2023-02-22T09:10:45.850Z,29.92
2023-02-22T09:11:46.580Z,30.20
2023-02-22T09:12:45.881Z,30.46
2023-02-22T09:13:45.904Z,30.35
2023-02-22T09:14:45.911Z,30.46
2023-02-22T09:15:47.588Z,30.83
2023-02-22T09:16:45.985Z,30.80
2023-02-22T09:17:45.959Z,30.84
2023-02-22T09:18:45.960Z,31.07
2023-02-22T09:19:45.985Z,31.18
2023-02-22T09:20:46.008Z,31.98
2023-02-22T09:21:46.008Z,32.68
2023-02-22T09:22:46.020Z,32.89
2023-02-22T09:23:46.036Z,32.55
2023-02-22T09:24:46.045Z,32.58
2023-02-22T09:25:46.068Z,30.90
2023-02-22T09:26:46.064Z,31.43
2023-02-22T09:27:46.075Z,30.85
2023-02-22T09:28:46.077Z,30.33
2023-02-22T09:29:47.626Z,30.09
2023-02-22T09:30:46.188Z,30.30
2023-02-22T09:31:46.142Z,30.23
2023-02-22T09:32:46.320Z,30.29
2023-02-22T09:33:47.429Z,30.37
2023-02-22T09:34:46.100Z,30.39
2023-02-22T09:35:46.176Z,30.54
2023-02-22T09:36:47.101Z,30.51
2023-02-22T09:37:46.256Z,30.56
2023-02-22T09:38:46.309Z,30.64
2023-02-22T09:39:46.451Z,30.79
2023-02-22T09:40:46.408Z,30.79
2023-02-22T09:41:46.428Z,30.68
2023-02-22T09:42:46.457Z,30.68
2023-02-22T09:43:46.486Z,30.77
2023-02-22T09:44:46.501Z,30.69
2023-02-22T09:45:46.547Z,30.62
2023-02-22T09:46:46.624Z,30.69
2023-02-22T09:47:46.748Z,30.89
2023-02-22T09:48:46.661Z,31.00
2023-02-22T09:49:46.677Z,31.03
2023-02-22T09:50:46.789Z,30.88
2023-02-22T09:51:46.746Z,30.88
2023-02-22T09:52:46.774Z,31.05
2023-02-22T09:53:47.520Z,30.94
2023-02-22T09:54:46.863Z,30.20
2023-02-22T09:55:46.914Z,28.38
2023-02-22T09:56:46.967Z,27.96
2023-02-22T09:57:46.964Z,28.38
2023-02-22T09:58:47.010Z,29.16
2023-02-22T09:59:47.000Z,30.06
2023-02-22T10:00:47.013Z,30.64
2023-02-22T10:01:47.039Z,30.67
2023-02-22T10:02:47.026Z,30.58
2023-02-22T10:03:47.093Z,30.56
2023-02-22T10:04:47.030Z,30.47
2023-02-22T10:05:47.060Z,30.45
2023-02-22T10:06:47.109Z,30.46
2023-02-22T10:07:47.066Z,30.38
2023-02-22T10:08:47.059Z,30.33
2023-02-22T10:09:47.074Z,30.37
2023-02-22T10:10:47.091Z,30.38
2023-02-22T10:11:47.097Z,30.40
2023-02-22T10:12:47.101Z,30.44
2023-02-22T10:13:47.086Z,30.86
2023-02-22T10:14:47.088Z,30.80
2023-02-22T10:15:47.120Z,30.83
2023-02-22T10:16:47.182Z,31.52
2023-02-22T10:17:48.192Z,31.71
2023-02-22T10:18:47.180Z,32.88
2023-02-22T10:19:47.202Z,33.56
2023-02-22T10:20:48.141Z,33.44
2023-02-22T10:21:47.243Z,33.18
2023-02-22T10:22:47.248Z,32.57
2023-02-22T10:23:48.125Z,31.51
2023-02-22T10:24:47.272Z,29.86
2023-02-22T10:25:47.271Z,29.97
2023-02-22T10:26:47.284Z,30.30
2023-02-22T10:27:47.277Z,30.31
2023-02-22T10:28:58.365Z,30.11
2023-02-22T10:29:47.393Z,30.01
2023-02-22T10:30:47.357Z,30.60
2023-02-22T10:31:47.407Z,30.78
2023-02-22T10:32:47.310Z,30.69
2023-02-22T10:33:47.315Z,30.77
2023-02-22T10:34:47.316Z,30.88
2023-02-22T10:35:47.433Z,30.92
2023-02-22T10:36:47.459Z,30.94
2023-02-22T10:37:47.538Z,30.96
2023-02-22T10:38:47.574Z,31.06
2023-02-22T10:39:47.688Z,31.14
2023-02-22T10:40:47.736Z,30.89
2023-02-22T10:41:47.772Z,30.95
2023-02-22T10:42:47.853Z,31.08
2023-02-22T10:43:47.908Z,31.02
2023-02-22T10:44:47.971Z,31.17
2023-02-22T10:45:49.722Z,31.40
2023-02-22T10:46:48.096Z,32.01
2023-02-22T10:47:48.147Z,32.01
2023-02-22T10:48:48.206Z,30.94
2023-02-22T10:49:48.287Z,29.79
2023-02-22T10:50:48.333Z,28.12
2023-02-22T10:51:48.411Z,28.25
2023-02-22T10:52:48.465Z,29.18
2023-02-22T10:53:48.525Z,29.84
2023-02-22T10:54:48.574Z,30.10
2023-02-22T10:55:50.686Z,30.31
2023-02-22T10:56:48.639Z,30.30
2023-02-22T10:57:48.644Z,30.36
2023-02-22T10:58:48.628Z,30.47
2023-02-22T10:59:48.617Z,30.27
2023-02-22T11:00:49.284Z,30.25
2023-02-22T11:01:48.687Z,30.36
2023-02-22T11:02:48.628Z,30.58
2023-02-22T11:03:48.640Z,30.58
2023-02-22T11:04:48.700Z,30.48
2023-02-22T11:05:48.648Z,30.61
2023-02-22T11:06:48.632Z,30.48
2023-02-22T11:07:48.644Z,30.61
2023-02-22T11:08:48.648Z,30.64
2023-02-22T11:09:48.652Z,30.63
2023-02-22T11:11:50.689Z,30.09
2023-02-22T11:12:49.617Z,30.78
2023-02-22T11:13:48.683Z,31.41
2023-02-22T11:14:48.687Z,30.79
2023-02-22T11:15:50.669Z,30.98
2023-02-22T11:16:48.719Z,31.20
2023-02-22T11:18:48.736Z,31.03
2023-02-22T11:19:48.728Z,30.98
2023-02-22T11:20:48.727Z,30.88
2023-02-22T11:21:48.723Z,30.88
2023-02-22T11:22:48.720Z,30.74
2023-02-22T11:23:48.731Z,30.78
2023-02-22T11:24:49.646Z,30.80
2023-02-22T11:25:48.719Z,30.89
2023-02-22T11:26:48.734Z,30.86
2023-02-22T11:27:48.720Z,30.86
2023-02-22T11:28:48.710Z,30.90
2023-02-22T11:29:48.713Z,30.92
2023-02-22T11:30:48.840Z,31.06
2023-02-22T11:31:48.816Z,31.04
2023-02-22T11:32:48.720Z,30.84
2023-02-22T11:33:48.732Z,30.95
2023-02-22T11:34:50.861Z,30.88
2023-02-22T11:35:48.746Z,31.01
2023-02-22T11:36:48.757Z,30.93
2023-02-22T11:37:48.765Z,30.88
2023-02-22T11:38:48.784Z,30.93
2023-02-22T11:39:48.772Z,30.94
2023-02-22T11:40:48.830Z,30.93
2023-02-22T11:41:48.778Z,31.52
2023-02-22T11:42:48.852Z,31.41
2023-02-22T11:43:48.770Z,31.10
2023-02-22T11:44:48.808Z,31.07
2023-02-22T11:45:57.843Z,31.19
2023-02-22T11:46:49.842Z,31.17
2023-02-22T11:47:48.789Z,31.19
2023-02-22T11:48:48.819Z,31.12
2023-02-22T11:49:48.796Z,31.14
2023-02-22T11:50:48.808Z,31.14
2023-02-22T11:51:48.826Z,31.05
2023-02-22T11:52:48.809Z,31.03
2023-02-22T11:57:48.841Z,30.98
2023-02-22T11:59:48.841Z,31.14
2023-02-22T12:00:48.855Z,31.53
2023-02-22T12:03:00.811Z,31.53
2023-02-22T12:04:48.946Z,31.14
2023-02-22T12:05:48.871Z,31.14
2023-02-22T12:08:48.872Z,31.91
2023-02-22T12:13:48.962Z,31.58
2023-02-22T12:15:49.037Z,31.63
2023-02-22T12:18:49.133Z,31.79
2023-02-22T13:29:53.110Z,31.29
2023-02-22T13:30:53.155Z,31.27
2023-02-22T13:31:53.184Z,31.51
2023-02-22T13:32:53.150Z,32.32
2023-02-22T13:33:53.176Z,32.55
2023-02-22T13:34:53.208Z,32.47
2023-02-22T13:35:53.249Z,32.35
2023-02-22T13:36:53.313Z,31.96
2023-02-22T13:37:53.365Z,31.65
2023-02-22T13:38:53.426Z,31.52
2023-02-22T13:39:53.483Z,31.52
2023-02-22T13:40:53.526Z,31.49
2023-02-22T13:41:53.557Z,31.60
2023-02-22T13:42:53.630Z,31.78
2023-02-22T13:43:53.682Z,31.77
2023-02-22T13:44:53.738Z,31.74
2023-02-22T13:45:53.825Z,31.74
2023-02-22T13:46:53.912Z,31.83
2023-02-22T13:47:53.855Z,32.02
2023-02-22T13:48:53.897Z,32.16
2023-02-22T13:49:53.938Z,32.22
2023-02-22T13:50:53.978Z,32.22
2023-02-22T13:51:54.015Z,32.19
2023-02-22T13:52:54.077Z,32.12
2023-02-22T13:53:54.127Z,32.11
2023-02-22T13:54:54.175Z,32.03
2023-02-22T13:55:54.241Z,32.08
2023-02-22T13:56:54.298Z,32.14
2023-02-22T13:57:54.373Z,32.17
2023-02-22T13:58:54.396Z,32.15
2023-02-22T13:59:54.458Z,32.13
2023-02-22T14:00:54.514Z,32.01
2023-02-22T14:01:54.727Z,32.00
2023-02-22T14:02:54.579Z,32.00
2023-02-22T14:03:54.620Z,32.03
2023-02-22T14:04:54.721Z,31.96
2023-02-22T14:05:54.726Z,31.95
2023-02-22T14:06:54.728Z,31.98
2023-02-22T14:07:54.789Z,31.97
2023-02-22T14:08:54.834Z,31.94
2023-02-22T14:09:54.897Z,31.91
2023-02-22T14:10:54.953Z,31.91
2023-02-22T14:11:55.009Z,31.89
2023-02-22T14:12:55.064Z,31.85
2023-02-22T14:13:55.123Z,31.83
2023-02-22T14:14:55.181Z,31.89
2023-02-22T14:15:55.260Z,31.87
2023-02-22T14:16:55.297Z,31.76
2023-02-22T14:17:55.342Z,31.94
2023-02-22T14:18:55.390Z,31.89
2023-02-22T14:19:55.423Z,31.84
2023-02-22T14:20:55.450Z,31.81